Time;durP1;ratioP1;P1;durP2;ratioP2;P2;SDS_P1;SDS_P2;PMS_P1;PMS_P2;Temp;Humidity;BMP_temperature;BMP_pressure;BME280_temperature;BME280_humidity;BME280_pressure;Samples;Min_cycle;Max_cycle;Signal;HPM_P1;HPM_P2
2023/09/20 00:00:35;;;;;;;2.38;0.90;;;20.80;90.00;;;;;;4994282;28;20114;-83
2023/09/20 00:03:00;;;;;;;2.88;1.00;;;20.70;90.00;;;;;;4976614;28;20031;-82
2023/09/20 00:05:26;;;;;;;3.58;1.00;;;20.70;89.60;;;;;;4992651;28;20030;-84
2023/09/20 00:07:56;;;;;;;1.95;0.90;;;20.70;89.60;;;;;;4976547;28;20023;-82
2023/09/20 00:10:24;;;;;;;4.00;1.00;;;20.70;89.30;;;;;;4976798;28;20397;-84
2023/09/20 00:12:50;;;;;;;2.90;1.00;;;20.70;89.60;;;;;;4975960;28;20062;-83
2023/09/20 00:15:16;;;;;;;2.80;1.10;;;20.70;89.40;;;;;;4976200;28;20498;-81
2023/09/20 00:17:43;;;;;;;1.90;0.90;;;20.70;89.50;;;;;;4992745;28;20488;-83
2023/09/20 00:20:12;;;;;;;2.38;0.80;;;20.70;90.00;;;;;;4976310;28;20514;-81
2023/09/20 00:22:44;;;;;;;2.88;1.00;;;20.70;90.00;;;;;;4975978;28;20117;-84
2023/09/20 00:25:12;;;;;;;2.05;0.90;;;20.70;90.00;;;;;;4975902;28;20018;-82
2023/09/20 00:27:38;;;;;;;1.95;0.90;;;20.70;89.80;;;;;;4976152;28;20027;-83
2023/09/20 00:30:14;;;;;;;3.10;1.10;;;20.70;90.10;;;;;;4993173;28;20105;-83
2023/09/20 00:32:43;;;;;;;2.15;0.80;;;20.70;90.20;;;;;;4992996;28;20038;-83
2023/09/20 00:35:10;;;;;;;2.35;0.98;;;20.80;90.20;;;;;;4975942;28;20038;-83
2023/09/20 00:37:37;;;;;;;2.85;1.00;;;20.80;90.40;;;;;;4975894;28;20031;-83
2023/09/20 00:40:03;;;;;;;4.15;0.95;;;20.90;90.10;;;;;;4976184;28;20036;-83
2023/09/20 00:42:31;;;;;;;2.65;1.02;;;20.80;90.00;;;;;;4992747;28;20113;-82
2023/09/20 00:45:01;;;;;;;3.10;0.90;;;20.80;89.80;;;;;;4993394;28;20032;-82
2023/09/20 00:47:27;;;;;;;2.25;0.85;;;20.80;89.90;;;;;;4975850;28;20029;-80
2023/09/20 00:49:52;;;;;;;1.88;1.02;;;21.00;90.00;;;;;;4975651;28;20117;-83
2023/09/20 00:52:18;;;;;;;1.77;0.90;;;20.70;89.80;;;;;;4992835;28;20031;-82
2023/09/20 00:54:44;;;;;;;1.48;0.70;;;20.70;90.00;;;;;;4975583;28;20039;-84
2023/09/20 00:57:10;;;;;;;2.22;0.93;;;20.80;90.00;;;;;;4993394;28;20030;-83
2023/09/20 00:59:38;;;;;;;2.65;1.08;;;20.70;90.10;;;;;;4975358;28;20092;-83
2023/09/20 01:02:05;;;;;;;2.67;0.90;;;20.70;90.10;;;;;;4975244;28;20034;-82
2023/09/20 01:04:34;;;;;;;1.83;0.90;;;20.70;90.10;;;;;;4991311;28;20054;-83
2023/09/20 01:06:59;;;;;;;2.92;1.20;;;20.70;90.00;;;;;;4975510;28;20038;-83
2023/09/20 01:09:26;;;;;;;2.78;0.85;;;20.60;90.10;;;;;;4975851;28;20026;-80
2023/09/20 01:11:51;;;;;;;4.90;1.10;;;20.70;90.20;;;;;;4992697;28;20053;-83
2023/09/20 01:14:18;;;;;;;1.63;0.82;;;20.70;90.30;;;;;;4975281;28;20430;-85
2023/09/20 01:16:43;;;;;;;3.17;1.00;;;20.60;90.50;;;;;;4992573;28;20383;-83
2023/09/20 01:19:09;;;;;;;2.70;1.00;;;20.70;90.30;;;;;;4991238;28;20034;-85
2023/09/20 01:21:42;;;;;;;2.85;0.90;;;20.70;90.30;;;;;;4975173;28;20057;-83
2023/09/20 01:24:09;;;;;;;2.03;0.93;;;20.70;90.30;;;;;;4992470;28;20018;-84
2023/09/20 01:26:39;;;;;;;2.88;1.00;;;20.70;90.30;;;;;;4975007;28;20122;-83
2023/09/20 01:29:04;;;;;;;3.55;1.00;;;20.70;90.20;;;;;;4992162;28;20021;-82
2023/09/20 01:31:30;;;;;;;2.78;0.98;;;20.70;90.20;;;;;;4975019;28;20113;-83
2023/09/20 01:33:56;;;;;;;2.72;1.02;;;20.70;90.00;;;;;;4992631;28;20550;-81
2023/09/20 01:36:21;;;;;;;2.40;1.02;;;20.80;90.00;;;;;;4991795;28;20125;-83
2023/09/20 01:38:47;;;;;;;2.35;0.90;;;20.80;89.70;;;;;;4973277;28;20133;-80
2023/09/20 01:41:14;;;;;;;2.20;1.00;;;20.70;90.00;;;;;;4990656;28;20442;-82
2023/09/20 01:43:41;;;;;;;3.15;1.10;;;20.70;90.00;;;;;;4990283;28;20026;-81
2023/09/20 01:46:07;;;;;;;2.25;1.00;;;20.70;90.20;;;;;;4973331;28;20023;-83
2023/09/20 01:48:34;;;;;;;2.42;1.00;;;20.70;90.00;;;;;;4990234;28;20046;-83
2023/09/20 01:51:02;;;;;;;2.03;0.80;;;20.70;90.00;;;;;;4972954;28;20022;-82
2023/09/20 01:53:28;;;;;;;2.00;0.80;;;20.70;90.00;;;;;;4973318;28;20558;-83
2023/09/20 01:55:54;;;;;;;1.95;0.90;;;20.70;90.30;;;;;;4990370;28;20106;-81
2023/09/20 01:58:19;;;;;;;3.75;1.08;;;20.70;90.00;;;;;;4990729;28;20057;-83
2023/09/20 02:00:50;;;;;;;1.90;0.90;;;20.70;90.20;;;;;;4973621;28;20092;-84
2023/09/20 02:03:18;;;;;;;3.13;0.90;;;20.70;90.60;;;;;;4991702;28;20077;-83
2023/09/20 02:05:47;;;;;;;2.28;0.90;;;20.70;90.40;;;;;;4992035;28;20042;-83
2023/09/20 02:08:13;;;;;;;2.65;1.00;;;20.70;90.40;;;;;;4990308;28;20041;-82
2023/09/20 02:10:39;;;;;;;2.40;0.90;;;20.70;90.50;;;;;;4991590;28;20030;-81
2023/09/20 02:13:06;;;;;;;1.92;0.90;;;20.70;90.40;;;;;;4973248;28;20113;-82
2023/09/20 02:15:36;;;;;;;2.38;0.80;;;20.60;90.30;;;;;;4974344;28;20019;-83
2023/09/20 02:18:05;;;;;;;2.20;0.98;;;20.70;90.70;;;;;;4974072;28;20027;-81
2023/09/20 02:20:36;;;;;;;2.05;1.00;;;20.70;90.40;;;;;;4991409;28;20026;-83
2023/09/20 02:23:06;;;;;;;2.58;1.15;;;20.70;90.40;;;;;;4973611;28;20034;-83
2023/09/20 02:25:32;;;;;;;2.13;1.00;;;20.70;90.30;;;;;;4973738;28;20033;-83
2023/09/20 02:27:58;;;;;;;1.67;0.93;;;20.70;90.40;;;;;;4973833;28;20398;-81
2023/09/20 02:30:28;;;;;;;2.03;1.02;;;20.70;90.20;;;;;;4973759;28;20117;-83
2023/09/20 02:32:54;;;;;;;2.35;1.00;;;20.60;90.10;;;;;;4990817;28;20023;-83
2023/09/20 02:35:20;;;;;;;1.95;0.90;;;20.70;90.10;;;;;;4973823;28;20088;-83
2023/09/20 02:37:47;;;;;;;2.08;0.80;;;20.70;90.10;;;;;;4975327;28;20023;-84
2023/09/20 02:40:19;;;;;;;2.33;0.90;;;20.70;90.20;;;;;;4977247;28;20022;-84
2023/09/20 02:42:55;;;;;;;2.28;1.00;;;20.60;90.30;;;;;;4978093;28;20061;-84
2023/09/20 02:45:24;;;;;;;2.45;1.00;;;20.70;90.70;;;;;;4975469;28;20499;-83
2023/09/20 02:47:51;;;;;;;3.35;1.00;;;20.60;90.30;;;;;;4977031;28;20061;-83
2023/09/20 02:50:19;;;;;;;3.15;1.00;;;20.70;90.50;;;;;;4994687;28;20034;-83
2023/09/20 02:52:48;;;;;;;2.60;0.95;;;20.70;90.50;;;;;;4976916;28;20026;-84
2023/09/20 02:55:15;;;;;;;2.45;1.10;;;20.60;90.30;;;;;;4977056;28;20379;-84
2023/09/20 02:57:44;;;;;;;2.45;0.95;;;20.60;90.30;;;;;;4994632;28;20057;-83
2023/09/20 03:00:15;;;;;;;2.63;1.10;;;20.70;90.50;;;;;;4977244;28;20037;-83
2023/09/20 03:02:52;;;;;;;2.65;0.98;;;20.60;90.60;;;;;;4977079;28;20033;-83
2023/09/20 03:05:20;;;;;;;2.53;1.00;;;20.60;90.50;;;;;;4976881;28;20063;-83
2023/09/20 03:07:47;;;;;;;2.53;0.90;;;20.70;90.50;;;;;;4977166;28;20022;-83
2023/09/20 03:10:15;;;;;;;1.55;1.00;;;20.70;90.50;;;;;;4976846;28;20488;-84
2023/09/20 03:12:44;;;;;;;1.52;0.82;;;20.70;90.50;;;;;;4976621;28;20030;-83
2023/09/20 03:15:21;;;;;;;2.90;1.05;;;20.70;90.40;;;;;;4994383;28;20084;-84
2023/09/20 03:17:51;;;;;;;2.28;0.93;;;20.70;90.40;;;;;;4976627;28;20052;-83
2023/09/20 03:20:18;;;;;;;3.20;1.13;;;20.70;90.40;;;;;;4977108;28;20034;-84
2023/09/20 03:22:46;;;;;;;1.67;1.00;;;20.70;90.30;;;;;;4976337;28;20659;-83
2023/09/20 03:25:14;;;;;;;2.30;1.00;;;20.70;90.20;;;;;;4976579;28;20018;-84
2023/09/20 03:27:40;;;;;;;2.92;1.00;;;20.70;90.10;;;;;;4976524;28;20379;-83
2023/09/20 03:30:08;;;;;;;2.45;1.08;;;20.70;90.30;;;;;;4976599;28;20019;-84
2023/09/20 03:32:33;;;;;;;2.38;0.90;;;20.60;90.30;;;;;;4976105;28;20035;-83
2023/09/20 03:34:59;;;;;;;1.98;0.90;;;20.70;90.40;;;;;;4976752;28;20056;-84
2023/09/20 03:37:25;;;;;;;3.55;1.15;;;20.70;90.40;;;;;;4976393;28;20125;-83
2023/09/20 03:39:51;;;;;;;2.30;1.02;;;20.60;90.40;;;;;;4994185;28;20061;-84
2023/09/20 03:42:17;;;;;;;2.15;0.82;;;20.60;90.40;;;;;;4993603;28;20030;-83
2023/09/20 03:44:42;;;;;;;2.85;1.15;;;20.60;90.40;;;;;;4976492;28;20033;-83
2023/09/20 03:47:08;;;;;;;2.38;0.90;;;20.60;90.50;;;;;;4974481;28;20109;-85
2023/09/20 03:49:33;;;;;;;2.10;0.90;;;20.60;90.60;;;;;;4973411;28;20372;-83
2023/09/20 03:52:00;;;;;;;2.03;1.10;;;20.70;90.60;;;;;;4985465;28;20249;-82
2023/09/20 03:54:26;;;;;;;1.80;0.90;;;20.60;90.60;;;;;;4995291;28;20034;-83
2023/09/20 03:56:52;;;;;;;2.63;1.00;;;20.60;90.70;;;;;;4995635;28;20320;-81
2023/09/20 03:59:18;;;;;;;1.70;1.00;;;20.60;90.70;;;;;;4995633;28;20514;-84
2023/09/20 04:01:43;;;;;;;2.15;0.90;;;20.70;90.60;;;;;;4995547;28;20034;-83
2023/09/20 04:04:09;;;;;;;2.20;0.90;;;20.60;90.60;;;;;;4995008;28;20402;-83
2023/09/20 04:06:35;;;;;;;1.95;1.02;;;20.60;90.60;;;;;;4992588;28;20486;-83
2023/09/20 04:09:10;;;;;;;1.63;0.90;;;20.70;90.50;;;;;;5009764;28;20105;-82
2023/09/20 04:11:40;;;;;;;1.48;0.90;;;20.70;90.50;;;;;;4992796;28;20057;-82
2023/09/20 04:14:07;;;;;;;2.50;1.10;;;20.70;90.50;;;;;;5009485;28;20061;-84
2023/09/20 04:16:37;;;;;;;3.70;1.20;;;20.70;90.40;;;;;;4992768;28;20125;-84
2023/09/20 04:19:04;;;;;;;2.78;1.08;;;20.70;90.40;;;;;;4992489;28;20033;-84
2023/09/20 04:21:29;;;;;;;2.70;1.00;;;20.60;90.40;;;;;;5010167;28;20041;-83
2023/09/20 04:23:55;;;;;;;1.88;0.93;;;20.60;90.40;;;;;;4992293;28;20022;-84
2023/09/20 04:26:20;;;;;;;2.08;1.05;;;20.60;90.40;;;;;;4993213;28;20032;-82
2023/09/20 04:28:48;;;;;;;4.15;1.55;;;20.60;90.60;;;;;;4992792;28;20026;-81
2023/09/20 04:31:14;;;;;;;2.05;0.95;;;20.60;90.30;;;;;;5000310;28;20034;-83
2023/09/20 04:33:39;;;;;;;3.22;1.05;;;20.60;90.40;;;;;;4972381;28;20041;-83
2023/09/20 04:36:05;;;;;;;2.83;1.02;;;20.60;90.50;;;;;;4976048;28;20026;-83
2023/09/20 04:38:31;;;;;;;2.40;1.10;;;20.60;90.50;;;;;;4976304;28;20037;-82
2023/09/20 04:40:59;;;;;;;4.47;1.20;;;20.60;90.50;;;;;;4976304;28;20134;-83
2023/09/20 04:43:28;;;;;;;1.90;1.00;;;20.60;90.50;;;;;;4994235;28;20014;-83
2023/09/20 04:45:55;;;;;;;2.22;1.00;;;20.60;90.50;;;;;;4998461;28;20494;-82
2023/09/20 04:48:20;;;;;;;1.77;0.90;;;20.60;90.70;;;;;;4976706;28;20026;-83
2023/09/20 04:50:48;;;;;;;2.03;1.10;;;20.60;90.70;;;;;;4976315;28;20022;-83
2023/09/20 04:53:14;;;;;;;2.60;1.08;;;20.60;90.70;;;;;;4993184;28;20042;-81
2023/09/20 04:55:40;;;;;;;4.35;1.15;;;20.60;90.70;;;;;;4976343;28;20054;-83
2023/09/20 04:58:06;;;;;;;2.15;1.13;;;20.60;90.50;;;;;;4975384;28;20030;-83
2023/09/20 05:00:37;;;;;;;3.13;1.17;;;20.60;90.60;;;;;;4989648;28;20045;-83
2023/09/20 05:03:03;;;;;;;2.20;1.02;;;20.60;90.50;;;;;;4976411;28;20030;-82
2023/09/20 05:05:29;;;;;;;2.33;1.10;;;20.60;90.50;;;;;;4976025;28;20034;-82
2023/09/20 05:07:56;;;;;;;2.03;1.00;;;20.70;90.50;;;;;;4975965;28;20389;-83
2023/09/20 05:10:22;;;;;;;4.22;1.10;;;20.70;90.50;;;;;;4975045;28;20371;-80
2023/09/20 05:12:48;;;;;;;3.83;1.00;;;20.70;90.50;;;;;;4975292;28;20072;-83
2023/09/20 05:15:15;;;;;;;2.97;1.20;;;20.60;90.30;;;;;;4975303;28;20058;-84
2023/09/20 05:17:43;;;;;;;1.33;0.90;;;20.60;90.30;;;;;;4992969;28;20058;-83
2023/09/20 05:20:11;;;;;;;3.30;1.33;;;20.60;90.40;;;;;;4975179;28;20027;-83
2023/09/20 05:22:37;;;;;;;2.63;1.08;;;20.60;90.40;;;;;;4976532;28;20034;-84
2023/09/20 05:25:03;;;;;;;3.38;1.10;;;20.60;90.30;;;;;;4976966;28;20479;-84
2023/09/20 05:27:29;;;;;;;2.67;1.30;;;20.60;90.40;;;;;;4992823;28;20062;-81
2023/09/20 05:29:55;;;;;;;2.60;0.80;;;20.60;90.40;;;;;;4994467;28;20070;-82
2023/09/20 05:32:22;;;;;;;2.33;1.20;;;20.60;90.40;;;;;;4977660;28;20029;-84
2023/09/20 05:34:47;;;;;;;3.00;1.17;;;20.60;90.70;;;;;;4977959;28;20026;-84
2023/09/20 05:37:13;;;;;;;2.47;1.08;;;20.60;90.50;;;;;;4978205;28;20030;-83
2023/09/20 05:39:38;;;;;;;2.38;1.17;;;20.60;90.40;;;;;;4978121;28;20026;-83
2023/09/20 05:42:08;;;;;;;4.05;1.40;;;20.60;90.20;;;;;;4977817;28;20066;-83
2023/09/20 05:44:33;;;;;;;4.10;1.08;;;20.50;90.30;;;;;;4977800;28;20018;-83
2023/09/20 05:46:59;;;;;;;3.17;1.35;;;20.50;90.20;;;;;;4977893;28;20026;-83
2023/09/20 05:49:25;;;;;;;3.22;1.30;;;20.60;90.60;;;;;;4978028;28;20027;-83
2023/09/20 05:51:50;;;;;;;2.95;1.30;;;20.50;90.50;;;;;;4977777;28;20734;-83
2023/09/20 05:54:19;;;;;;;3.15;1.35;;;20.60;90.40;;;;;;4977619;28;20031;-83
2023/09/20 05:56:45;;;;;;;3.92;1.23;;;20.60;90.40;;;;;;4977858;28;20093;-83
2023/09/20 05:59:11;;;;;;;3.45;1.17;;;20.60;90.40;;;;;;4977772;28;20030;-83
2023/09/20 06:01:40;;;;;;;4.47;1.40;;;20.60;90.30;;;;;;4977487;28;20030;-83
2023/09/20 06:04:09;;;;;;;3.58;1.20;;;20.70;90.20;;;;;;4977562;28;20109;-83
2023/09/20 06:06:37;;;;;;;2.58;1.13;;;20.70;90.00;;;;;;4977520;28;20054;-83
2023/09/20 06:09:03;;;;;;;3.70;1.25;;;20.70;89.50;;;;;;4977566;28;20554;-83
2023/09/20 06:11:28;;;;;;;3.25;1.30;;;20.70;89.60;;;;;;4995036;28;20106;-83
2023/09/20 06:13:54;;;;;;;2.90;1.08;;;20.70;89.40;;;;;;4977109;28;20065;-83
2023/09/20 06:16:20;;;;;;;3.20;1.20;;;20.80;89.50;;;;;;4977487;28;20030;-83
2023/09/20 06:18:48;;;;;;;4.35;1.50;;;20.70;89.60;;;;;;4977285;28;20062;-83
2023/09/20 06:21:15;;;;;;;3.25;1.20;;;20.70;89.60;;;;;;4977135;28;20026;-83
2023/09/20 06:23:40;;;;;;;2.92;1.33;;;20.70;90.00;;;;;;4976987;28;20022;-83
2023/09/20 06:26:12;;;;;;;3.83;1.42;;;20.70;90.00;;;;;;4977377;28;20022;-83
2023/09/20 06:28:40;;;;;;;4.30;1.35;;;20.70;90.00;;;;;;4977227;28;20022;-83
2023/09/20 06:31:07;;;;;;;3.08;1.10;;;20.80;90.10;;;;;;4994724;28;20019;-83
2023/09/20 06:33:32;;;;;;;3.00;1.20;;;20.70;90.10;;;;;;4976515;28;20022;-83
2023/09/20 06:35:59;;;;;;;2.72;1.20;;;20.70;90.00;;;;;;4977281;28;20118;-83
2023/09/20 06:38:25;;;;;;;5.72;1.42;;;20.80;90.10;;;;;;4976776;28;20114;-83
2023/09/20 06:40:54;;;;;;;3.67;1.48;;;20.80;90.00;;;;;;4977054;28;20468;-82
2023/09/20 06:43:20;;;;;;;2.85;1.20;;;20.80;90.00;;;;;;4994246;28;20050;-84
2023/09/20 06:45:50;;;;;;;3.25;1.30;;;20.80;90.10;;;;;;4994190;28;20029;-82
2023/09/20 06:48:16;;;;;;;2.63;1.27;;;20.80;90.10;;;;;;4976772;28;20544;-82
2023/09/20 06:50:43;;;;;;;3.15;1.38;;;20.90;90.00;;;;;;4976849;28;20019;-83
2023/09/20 06:53:09;;;;;;;3.05;1.30;;;20.90;89.80;;;;;;4976450;28;20022;-83
2023/09/20 06:55:34;;;;;;;2.15;1.20;;;20.90;89.60;;;;;;4976750;28;20034;-83
2023/09/20 06:58:00;;;;;;;2.03;1.00;;;21.00;89.50;;;;;;4993874;28;20041;-83
2023/09/20 07:00:26;;;;;;;2.58;1.23;;;21.00;89.40;;;;;;4976764;28;20045;-84
2023/09/20 07:02:53;;;;;;;2.97;1.40;;;21.00;89.30;;;;;;4993104;28;20372;-83
2023/09/20 07:05:20;;;;;;;2.47;1.02;;;21.00;89.40;;;;;;4976735;28;20034;-83
2023/09/20 07:07:47;;;;;;;2.38;1.15;;;21.00;89.50;;;;;;4976678;28;20062;-83
2023/09/20 07:10:12;;;;;;;3.78;1.20;;;20.90;89.50;;;;;;4976454;28;20153;-83
2023/09/20 07:12:38;;;;;;;3.90;1.33;;;20.80;89.50;;;;;;4976277;28;20510;-83
2023/09/20 07:15:08;;;;;;;2.83;1.10;;;20.90;89.60;;;;;;4993978;28;20022;-83
2023/09/20 07:17:35;;;;;;;1.35;0.98;;;20.90;89.60;;;;;;4976395;28;20030;-83
2023/09/20 07:20:04;;;;;;;3.63;1.20;;;21.00;89.60;;;;;;4976297;28;20026;-83
2023/09/20 07:22:30;;;;;;;3.40;1.30;;;21.00;89.50;;;;;;4976151;28;20034;-83
2023/09/20 07:24:58;;;;;;;2.92;1.25;;;19.50;88.60;;;;;;4976367;28;20024;-83
2023/09/20 07:27:23;;;;;;;3.90;1.30;;;21.10;89.40;;;;;;4992449;28;20029;-83
2023/09/20 07:29:51;;;;;;;3.72;1.42;;;21.10;89.30;;;;;;4976389;28;20026;-83
2023/09/20 07:32:17;;;;;;;3.05;1.13;;;21.10;89.20;;;;;;4975767;28;20018;-83
2023/09/20 07:34:47;;;;;;;4.13;1.30;;;21.10;89.20;;;;;;4992282;28;20033;-83
2023/09/20 07:37:12;;;;;;;3.53;1.13;;;21.10;89.20;;;;;;4976401;28;20053;-83
2023/09/20 07:39:38;;;;;;;3.13;1.17;;;21.10;89.10;;;;;;4993671;28;20487;-84
2023/09/20 07:42:05;;;;;;;2.95;1.15;;;21.10;89.00;;;;;;4992316;28;20130;-83
2023/09/20 07:44:31;;;;;;;2.63;1.23;;;21.20;88.90;;;;;;4992045;28;20077;-83
2023/09/20 07:47:00;;;;;;;2.90;1.30;;;21.20;88.80;;;;;;4976164;28;20023;-83
2023/09/20 07:49:25;;;;;;;3.42;1.20;;;21.30;88.70;;;;;;4976197;28;20022;-83
2023/09/20 07:51:53;;;;;;;2.53;1.30;;;21.30;88.60;;;;;;4976284;28;20046;-83
2023/09/20 07:54:19;;;;;;;3.40;1.27;;;21.30;88.50;;;;;;4976108;28;20467;-84
2023/09/20 07:56:49;;;;;;;1.75;1.08;;;21.30;88.50;;;;;;4993624;28;20073;-83
2023/09/20 07:59:16;;;;;;;2.65;1.15;;;21.30;88.40;;;;;;4975903;28;20505;-83
2023/09/20 08:01:43;;;;;;;2.47;1.30;;;21.30;88.40;;;;;;4993411;28;20030;-84
2023/09/20 08:04:10;;;;;;;2.97;1.13;;;21.30;88.30;;;;;;4975815;28;20027;-84
2023/09/20 08:06:36;;;;;;;2.17;1.10;;;21.40;88.20;;;;;;4991952;28;20031;-83
2023/09/20 08:09:05;;;;;;;2.42;1.30;;;21.40;88.30;;;;;;4993398;28;20027;-83
2023/09/20 08:11:32;;;;;;;2.63;1.40;;;21.40;88.00;;;;;;4979511;28;20376;-83
2023/09/20 08:13:59;;;;;;;2.08;1.17;;;21.40;87.90;;;;;;4996929;28;20026;-83
2023/09/20 08:16:32;;;;;;;2.35;1.27;;;21.50;88.00;;;;;;4997215;28;20058;-83
2023/09/20 08:21:42;;;;;;;3.10;1.20;;;21.50;88.00;;;;;;4997245;28;20026;-83
2023/09/20 09:00:19;;;;;;;2.85;1.20;;;21.60;88.00;;;;;;4996539;28;20041;-84
2023/09/20 09:02:48;;;;;;;2.38;1.25;;;21.60;88.10;;;;;;4978701;28;20080;-84
2023/09/20 09:05:15;;;;;;;1.90;1.02;;;21.50;88.20;;;;;;4995144;28;20026;-84
2023/09/20 09:07:40;;;;;;;2.88;1.30;;;21.50;88.40;;;;;;4995359;28;20557;-84
2023/09/20 09:10:07;;;;;;;2.25;1.05;;;21.50;88.40;;;;;;4996365;28;20030;-84
2023/09/20 09:12:33;;;;;;;3.13;1.33;;;21.50;88.50;;;;;;4978299;28;20034;-83
2023/09/20 09:14:59;;;;;;;3.95;1.40;;;21.50;89.10;;;;;;4994897;28;20034;-83
2023/09/20 09:17:26;;;;;;;1.92;1.10;;;21.50;89.20;;;;;;4978754;28;20040;-84
2023/09/20 09:19:52;;;;;;;2.60;1.30;;;21.40;88.70;;;;;;4978589;28;20509;-83
2023/09/20 09:22:18;;;;;;;2.10;1.02;;;21.40;88.80;;;;;;4995211;28;20031;-83
2023/09/20 09:24:45;;;;;;;3.42;1.10;;;21.40;88.90;;;;;;4995929;28;20054;-83
2023/09/20 09:27:11;;;;;;;2.08;1.10;;;21.40;89.00;;;;;;4978651;28;20022;-83
2023/09/20 09:29:37;;;;;;;3.55;1.30;;;21.40;89.00;;;;;;4978413;28;20022;-83
2023/09/20 09:32:04;;;;;;;2.40;1.33;;;21.40;89.00;;;;;;4978200;28;20023;-82
2023/09/20 09:34:30;;;;;;;2.85;1.30;;;21.40;89.00;;;;;;4978221;28;20030;-82
2023/09/20 09:36:56;;;;;;;2.15;1.05;;;21.40;88.80;;;;;;4978297;28;20431;-81
2023/09/20 09:39:22;;;;;;;2.28;1.10;;;21.50;88.80;;;;;;4978322;28;20026;-81
2023/09/20 09:41:47;;;;;;;2.30;1.05;;;21.50;88.60;;;;;;4977987;28;20030;-82
2023/09/20 09:44:14;;;;;;;2.58;1.20;;;21.60;88.70;;;;;;4995774;28;20049;-82
2023/09/20 09:46:41;;;;;;;2.60;1.38;;;21.60;88.50;;;;;;4978106;28;20033;-82
2023/09/20 09:49:11;;;;;;;2.72;1.15;;;21.60;88.50;;;;;;4978059;28;20073;-82
2023/09/20 09:51:52;;;;;;;2.10;1.13;;;21.60;88.50;;;;;;4977981;28;20407;-83
2023/09/20 09:54:20;;;;;;;2.35;1.15;;;21.60;88.50;;;;;;4995282;28;20483;-83
2023/09/20 09:56:46;;;;;;;2.95;1.10;;;21.60;88.50;;;;;;4994052;28;20035;-82
2023/09/20 09:59:13;;;;;;;1.95;1.10;;;21.60;88.40;;;;;;4977897;28;20028;-81
2023/09/20 10:01:39;;;;;;;2.15;1.17;;;21.60;88.50;;;;;;4977897;28;20423;-83
2023/09/20 10:04:10;;;;;;;2.72;1.25;;;21.60;88.50;;;;;;4995431;28;20053;-83
2023/09/20 10:06:44;;;;;;;1.80;1.13;;;21.60;88.50;;;;;;4977843;28;20061;-84
2023/09/20 10:09:11;;;;;;;1.67;1.00;;;21.60;88.50;;;;;;4995205;28;20031;-82
2023/09/20 10:11:38;;;;;;;2.67;1.10;;;21.70;88.60;;;;;;4993935;28;20529;-82
2023/09/20 10:14:07;;;;;;;1.77;1.10;;;21.70;88.60;;;;;;4977677;28;20487;-82
2023/09/20 10:16:39;;;;;;;2.72;1.23;;;21.70;88.60;;;;;;4977374;28;20081;-82
2023/09/20 10:19:07;;;;;;;;;;;21.70;88.60;;;;;;4978353;28;20490;-83
2023/09/20 10:21:33;;;;;;;2.60;1.20;;;21.70;88.60;;;;;;4977479;28;19916;-83
2023/09/20 10:24:15;;;;;;;2.20;1.20;;;21.70;88.60;;;;;;4977281;28;20022;-84
2023/09/20 10:26:43;;;;;;;1.70;0.93;;;21.70;88.60;;;;;;4977264;28;20124;-84
2023/09/20 10:29:24;;;;;;;2.13;1.25;;;21.70;88.50;;;;;;4977341;28;20019;-84
2023/09/20 10:31:52;;;;;;;2.40;1.20;;;21.70;88.50;;;;;;4977021;28;20034;-83
2023/09/20 10:34:19;;;;;;;2.38;1.20;;;21.80;88.40;;;;;;4993829;28;20199;-83
2023/09/20 10:36:52;;;;;;;1.42;0.90;;;21.80;88.20;;;;;;4993239;28;20033;-83
2023/09/20 10:39:18;;;;;;;1.38;0.95;;;21.90;88.30;;;;;;4994759;28;20022;-83
2023/09/20 10:41:45;;;;;;;2.80;1.10;;;21.80;88.20;;;;;;4994559;28;20105;-83
2023/09/20 10:44:30;;;;;;;2.00;1.00;;;21.70;88.20;;;;;;4993011;28;20053;-83
2023/09/20 10:46:58;;;;;;;2.00;1.10;;;21.70;88.40;;;;;;4977279;28;20156;-83
2023/09/20 10:49:54;;;;;;;1.40;0.90;;;21.70;89.00;;;;;;4976658;28;20022;-83
2023/09/20 10:52:58;;;;;;;2.33;1.20;;;21.70;88.60;;;;;;4976683;28;20089;-83
2023/09/20 10:55:23;;;;;;;2.13;1.20;;;21.60;88.70;;;;;;4964648;28;20133;-84
2023/09/20 10:57:50;;;;;;;2.20;1.00;;;21.60;88.90;;;;;;4977041;28;20062;-83
2023/09/20 11:00:25;;;;;;;1.20;1.00;;;21.50;88.90;;;;;;4977252;28;20030;-83
2023/09/20 11:02:53;;;;;;;1.90;1.00;;;21.60;89.00;;;;;;4976716;28;20509;-84
2023/09/20 11:05:19;;;;;;;2.13;1.20;;;21.60;89.00;;;;;;4993012;28;20034;-83
2023/09/20 11:07:47;;;;;;;3.05;1.30;;;21.60;89.10;;;;;;4976713;28;20390;-83
2023/09/20 11:10:17;;;;;;;1.58;1.00;;;21.50;89.10;;;;;;4976905;28;20022;-83
2023/09/20 11:12:43;;;;;;;2.20;1.10;;;21.50;89.10;;;;;;4976529;28;20026;-83
2023/09/20 11:15:10;;;;;;;1.75;1.15;;;21.50;89.20;;;;;;4976488;28;20060;-84
2023/09/20 11:17:36;;;;;;;2.15;1.10;;;21.50;89.20;;;;;;4993973;28;20026;-83
2023/09/20 11:20:04;;;;;;;2.15;1.13;;;21.50;89.10;;;;;;4993860;28;20446;-83
2023/09/20 11:22:31;;;;;;;2.17;1.10;;;21.50;89.20;;;;;;4976244;28;20117;-84
2023/09/20 11:24:57;;;;;;;1.65;0.90;;;21.50;89.00;;;;;;4994246;28;20026;-83
2023/09/20 11:27:23;;;;;;;2.33;1.00;;;21.50;88.90;;;;;;4994026;28;20022;-83
2023/09/20 11:29:49;;;;;;;1.48;0.88;;;21.60;88.90;;;;;;4976270;28;20089;-83
2023/09/20 11:32:21;;;;;;;2.10;1.10;;;21.60;88.90;;;;;;4992260;28;20380;-82
2023/09/20 11:34:49;;;;;;;1.65;1.00;;;21.60;88.90;;;;;;4976458;28;20483;-83
2023/09/20 11:37:22;;;;;;;2.88;1.30;;;21.60;88.90;;;;;;4976415;28;20073;-83
2023/09/20 11:39:51;;;;;;;2.38;0.95;;;21.60;89.00;;;;;;4976294;28;20439;-83
2023/09/20 11:42:27;;;;;;;2.78;1.08;;;21.50;89.00;;;;;;4975962;28;20037;-83
2023/09/20 11:44:55;;;;;;;2.20;1.10;;;21.50;89.00;;;;;;4980740;28;20026;-83
2023/09/20 11:47:20;;;;;;;2.40;1.10;;;21.50;89.00;;;;;;5000312;28;20033;-83
2023/09/20 11:49:47;;;;;;;1.30;0.95;;;21.50;89.10;;;;;;4982616;28;20023;-83
2023/09/20 11:52:17;;;;;;;1.90;1.00;;;21.50;89.00;;;;;;4982506;28;20421;-84
2023/09/20 11:54:43;;;;;;;2.17;0.93;;;21.50;89.00;;;;;;5000053;28;20446;-83
2023/09/20 11:57:16;;;;;;;2.13;1.20;;;21.50;89.10;;;;;;4982605;28;20026;-83
2023/09/20 11:59:43;;;;;;;2.35;1.00;;;21.50;89.10;;;;;;4982717;28;20573;-84
2023/09/20 12:02:09;;;;;;;1.65;0.95;;;21.50;89.10;;;;;;4998670;28;20126;-83
2023/09/20 12:04:35;;;;;;;2.10;1.15;;;21.50;89.20;;;;;;4982363;28;20061;-83
2023/09/20 12:07:01;;;;;;;2.40;1.08;;;21.50;89.10;;;;;;4982409;28;20121;-84
2023/09/20 12:09:27;;;;;;;1.40;1.00;;;21.50;89.20;;;;;;4982643;28;20060;-84
2023/09/20 12:11:53;;;;;;;1.60;0.90;;;21.50;89.20;;;;;;4982538;28;20446;-83
2023/09/20 12:14:18;;;;;;;1.92;1.08;;;21.40;89.20;;;;;;4982261;28;20022;-85
2023/09/20 12:16:47;;;;;;;2.20;1.05;;;21.40;89.20;;;;;;4998554;28;20026;-83
2023/09/20 12:19:15;;;;;;;3.00;1.10;;;21.50;89.20;;;;;;4982322;28;20386;-83
2023/09/20 12:21:41;;;;;;;2.28;1.05;;;21.40;89.00;;;;;;4982231;28;20274;-83
2023/09/20 12:24:06;;;;;;;1.60;0.85;;;21.50;89.00;;;;;;4998247;28;20061;-84
2023/09/20 12:26:33;;;;;;;2.90;1.23;;;21.50;89.00;;;;;;4982256;28;20026;-83
2023/09/20 12:28:58;;;;;;;2.13;1.08;;;21.50;89.00;;;;;;4998533;28;20034;-84
2023/09/20 12:31:25;;;;;;;1.63;1.05;;;21.50;89.00;;;;;;4998501;28;20022;-84
2023/09/20 12:33:52;;;;;;;2.03;1.10;;;21.50;89.10;;;;;;4999292;28;20027;-83
2023/09/20 12:36:18;;;;;;;1.80;1.00;;;21.50;89.10;;;;;;4982082;28;20033;-83
2023/09/20 12:38:44;;;;;;;1.00;0.80;;;21.50;89.20;;;;;;4998423;28;20023;-83
2023/09/20 12:41:09;;;;;;;2.40;1.00;;;21.40;89.10;;;;;;4981924;28;20022;-83
2023/09/20 12:43:38;;;;;;;1.38;0.90;;;21.40;89.10;;;;;;4981750;28;20697;-83
2023/09/20 12:46:05;;;;;;;1.60;0.95;;;21.40;89.20;;;;;;4999656;28;20101;-83
2023/09/20 12:48:32;;;;;;;1.60;0.90;;;21.40;89.30;;;;;;4982007;28;20406;-83
2023/09/20 12:50:58;;;;;;;2.45;1.10;;;21.40;89.30;;;;;;4999611;28;20023;-83
2023/09/20 12:53:24;;;;;;;1.58;0.90;;;21.40;89.30;;;;;;4981840;28;20113;-83
2023/09/20 12:55:50;;;;;;;1.50;0.80;;;21.40;89.30;;;;;;4997429;28;20031;-83
2023/09/20 12:58:16;;;;;;;1.35;0.80;;;21.40;89.40;;;;;;4979223;28;20065;-83
2023/09/20 13:00:43;;;;;;;1.60;0.90;;;21.40;89.40;;;;;;4996361;28;20034;-83
2023/09/20 13:03:08;;;;;;;1.65;0.98;;;21.40;89.50;;;;;;4978468;28;20026;-83
2023/09/20 13:05:35;;;;;;;1.60;0.98;;;21.40;90.00;;;;;;4995072;28;20080;-83
2023/09/20 13:08:01;;;;;;;2.03;1.00;;;21.40;89.50;;;;;;4978981;28;20438;-83
2023/09/20 13:10:27;;;;;;;1.05;0.80;;;21.40;89.40;;;;;;4978793;28;20023;-82
2023/09/20 13:12:53;;;;;;;1.10;0.85;;;21.40;89.30;;;;;;4978493;28;20117;-82
2023/09/20 13:15:19;;;;;;;1.73;1.10;;;21.40;89.20;;;;;;4996832;28;20058;-82
2023/09/20 13:17:47;;;;;;;2.13;1.20;;;21.40;89.10;;;;;;4978738;28;20041;-83
2023/09/20 13:20:14;;;;;;;1.48;0.82;;;21.30;89.00;;;;;;4978444;28;20035;-81
2023/09/20 13:22:41;;;;;;;1.13;0.90;;;21.40;89.10;;;;;;4995324;28;20202;-81
2023/09/20 13:25:08;;;;;;;1.70;0.77;;;21.40;89.10;;;;;;4996029;28;20026;-82
2023/09/20 13:27:34;;;;;;;2.17;1.00;;;21.40;89.20;;;;;;4996215;28;20022;-82